Time;durP1;ratioP1;P1;durP2;ratioP2;P2;SDS_P1;SDS_P2;PMS_P1;PMS_P2;Temp;Humidity;BMP_temperature;BMP_pressure;BME280_temperature;BME280_humidity;BME280_pressure;Samples;Min_cycle;Max_cycle;Signal;HPM_P1;HPM_P2
2022/07/03 00:00:54;;;;;;;5.10;4.40;;;;;;;12.63;100.00;98834.72;2627673;28;20048;-89
2022/07/03 00:02:10;;;;;;;4.82;4.32;;;;;;;12.81;100.00;98833.31;2627811;28;20055;-89
2022/07/03 00:03:25;;;;;;;7.40;4.60;;;;;;;12.84;100.00;98835.84;2627627;28;20085;-89
2022/07/03 00:04:41;;;;;;;6.53;4.80;;;;;;;12.86;100.00;98831.38;2627642;28;20048;-88
2022/07/03 00:05:57;;;;;;;7.30;4.95;;;;;;;12.85;100.00;98838.41;2627727;28;20058;-89
2022/07/03 00:07:12;;;;;;;8.45;4.40;;;;;;;12.88;100.00;98833.97;2627396;28;20560;-90
2022/07/03 00:08:28;;;;;;;6.75;4.60;;;;;;;12.95;100.00;98836.38;2627681;28;20134;-92
2022/07/03 00:09:43;;;;;;;7.93;4.10;;;;;;;12.93;100.00;98832.06;2627529;28;20051;-89
2022/07/03 00:10:59;;;;;;;5.20;4.68;;;;;;;12.79;100.00;98838.59;2627184;28;20052;-93
2022/07/03 00:12:15;;;;;;;6.20;4.55;;;;;;;12.65;100.00;98840.78;2627452;28;20058;-89
2022/07/03 00:13:31;;;;;;;11.07;4.90;;;;;;;12.55;100.00;98833.16;2627437;28;20109;-90
2022/07/03 00:14:46;;;;;;;5.40;4.38;;;;;;;12.46;100.00;98833.47;2627576;28;20514;-89
2022/07/03 00:16:02;;;;;;;4.80;4.30;;;;;;;12.40;100.00;98834.50;2616222;28;20041;-89
2022/07/03 00:17:18;;;;;;;6.57;4.43;;;;;;;12.35;100.00;98832.91;2620769;28;20048;-89
2022/07/03 00:18:33;;;;;;;5.70;4.38;;;;;;;12.29;100.00;98839.19;2627535;28;20058;-89
2022/07/03 00:19:49;;;;;;;6.00;4.82;;;;;;;12.25;100.00;98827.06;2616140;28;20612;-89
2022/07/03 00:21:08;;;;;;;7.15;4.55;;;;;;;12.23;100.00;98840.22;2620581;28;20105;-90
2022/07/03 00:22:25;;;;;;;9.35;5.05;;;;;;;12.18;100.00;98836.88;2627540;28;20413;-90
2022/07/03 00:23:46;;;;;;;6.03;4.90;;;;;;;12.17;100.00;98826.41;2627744;28;20050;-89
2022/07/03 00:25:06;;;;;;;7.80;4.78;;;;;;;12.14;100.00;98829.97;2616325;28;20055;-89
2022/07/03 00:26:25;;;;;;;6.70;4.65;;;;;;;12.14;100.00;98822.97;2621134;28;20043;-88
2022/07/03 00:27:43;;;;;;;7.82;5.15;;;;;;;12.15;100.00;98819.44;2627405;28;20055;-91
2022/07/03 00:29:01;;;;;;;5.65;4.85;;;;;;;12.20;100.00;98831.56;2615989;28;20056;-88
2022/07/03 00:30:16;;;;;;;5.78;4.85;;;;;;;12.20;100.00;98829.81;2620787;28;20044;-89
2022/07/03 00:31:32;;;;;;;7.72;4.90;;;;;;;12.24;100.00;98835.84;2615964;28;20840;-91
2022/07/03 00:32:48;;;;;;;5.75;4.68;;;;;;;12.23;100.00;98826.25;2620691;28;20140;-89
2022/07/03 00:34:08;;;;;;;7.50;4.60;;;;;;;12.21;100.00;98823.66;2627245;28;20121;-92
2022/07/03 00:35:24;;;;;;;7.10;4.70;;;;;;;12.34;100.00;98828.56;2627452;28;20119;-89
2022/07/03 00:36:41;;;;;;;6.45;4.63;;;;;;;12.27;100.00;98828.72;2626816;28;20048;-88
2022/07/03 00:37:56;;;;;;;4.38;3.97;;;;;;;12.19;100.00;98825.47;2627316;28;20425;-89
2022/07/03 00:39:12;;;;;;;4.60;4.10;;;;;;;12.12;100.00;98821.28;2627225;28;20044;-88
2022/07/03 00:40:28;;;;;;;6.72;4.65;;;;;;;12.03;100.00;98826.81;2627113;28;20069;-89
2022/07/03 00:41:48;;;;;;;6.35;4.43;;;;;;;11.96;100.00;98826.09;2616037;28;20045;-90
2022/07/03 00:43:04;;;;;;;5.93;3.88;;;;;;;11.91;100.00;98820.97;2620873;28;20276;-88
2022/07/03 00:44:20;;;;;;;5.00;4.53;;;;;;;11.88;100.00;98823.69;2626986;28;20126;-89
2022/07/03 00:45:42;;;;;;;5.50;4.18;;;;;;;11.88;100.00;98815.81;2627432;28;20044;-88
2022/07/03 00:46:59;;;;;;;7.25;4.53;;;;;;;11.86;100.00;98814.97;2627304;28;20040;-88
2022/07/03 00:48:16;;;;;;;4.95;4.13;;;;;;;11.82;100.00;98819.44;2627381;28;20048;-88
2022/07/03 00:49:34;;;;;;;7.75;4.70;;;;;;;11.78;100.00;98819.56;2627068;28;20071;-89
2022/07/03 00:50:52;;;;;;;7.30;4.40;;;;;;;11.73;100.00;98819.69;2626920;28;20482;-89
2022/07/03 00:52:09;;;;;;;5.75;4.22;;;;;;;11.69;100.00;98816.28;2627246;28;20129;-90
2022/07/03 00:53:29;;;;;;;4.93;4.40;;;;;;;11.67;100.00;98818.09;2627083;28;20135;-88
2022/07/03 00:54:55;;;;;;;5.95;4.00;;;;;;;11.66;100.00;98821.63;2627122;28;20132;-90
2022/07/03 00:56:13;;;;;;;4.68;3.97;;;;;;;11.59;100.00;98817.41;2627062;28;20490;-88
2022/07/03 00:57:30;;;;;;;4.60;3.92;;;;;;;11.54;100.00;98816.69;2626827;28;20040;-89
2022/07/03 00:58:46;;;;;;;5.68;4.38;;;;;;;11.55;100.00;98818.41;2627106;28;20078;-88
2022/07/03 01:00:01;;;;;;;5.75;4.18;;;;;;;11.60;100.00;98821.78;2626955;28;20059;-90
2022/07/03 01:01:18;;;;;;;5.35;4.32;;;;;;;11.65;100.00;98827.75;2626646;28;20090;-88
2022/07/03 01:02:49;;;;;;;4.88;4.22;;;;;;;11.67;100.00;98822.50;2626887;28;20128;-90
2022/07/03 01:04:36;;;;;;;6.55;4.75;;;;;;;11.66;100.00;98823.34;2627067;28;20048;-90
2022/07/03 01:05:59;;;;;;;5.25;4.45;;;;;;;11.68;100.00;98818.97;2627093;28;20054;-88
2022/07/03 01:07:37;;;;;;;5.22;4.20;;;;;;;11.66;100.00;98824.25;2626951;28;20056;-89
2022/07/03 01:08:59;;;;;;;5.80;4.45;;;;;;;11.67;100.00;98818.09;2627137;28;20051;-89
2022/07/03 01:10:20;;;;;;;4.78;4.10;;;;;;;11.62;100.00;98804.25;2627086;28;20052;-89
2022/07/03 01:11:47;;;;;;;4.95;4.20;;;;;;;11.58;100.00;98810.44;2627138;28;20055;-91
2022/07/03 01:13:09;;;;;;;5.75;4.85;;;;;;;11.56;100.00;98807.88;2627647;28;20519;-88
2022/07/03 01:14:41;;;;;;;5.47;4.88;;;;;;;11.56;100.00;98810.50;2626928;28;20262;-89
2022/07/03 01:16:15;;;;;;;5.93;4.32;;;;;;;11.55;100.00;98810.53;2626884;28;20047;-88
2022/07/03 01:17:39;;;;;;;5.07;4.20;;;;;;;11.53;100.00;98810.59;2627389;28;20429;-89
2022/07/03 01:19:04;;;;;;;8.40;4.20;;;;;;;11.49;100.00;98814.19;2627107;28;20051;-90
2022/07/03 01:20:27;;;;;;;4.47;4.05;;;;;;;11.50;100.00;98809.81;2626963;28;20388;-88
2022/07/03 01:21:59;;;;;;;6.22;4.20;;;;;;;11.50;100.00;98809.81;2615826;28;20423;-88
2022/07/03 01:23:45;;;;;;;4.50;4.03;;;;;;;11.49;100.00;98805.47;2611537;28;20052;-92
2022/07/03 01:25:18;;;;;;;6.03;4.20;;;;;;;11.47;100.00;98804.66;2624603;28;20055;-89
2022/07/03 01:26:37;;;;;;;7.53;4.70;;;;;;;11.47;100.00;98805.50;2626962;28;20051;-88
2022/07/03 01:28:12;;;;;;;4.65;4.13;;;;;;;11.47;100.00;98807.28;2626949;28;20075;-89
2022/07/03 01:29:57;;;;;;;7.13;4.38;;;;;;;11.47;100.00;98802.03;2626745;28;20043;-88
2022/07/03 01:31:18;;;;;;;7.93;4.05;;;;;;;11.44;100.00;98803.81;2608622;28;20556;-91
2022/07/03 01:33:08;;;;;;;5.55;4.57;;;;;;;11.37;100.00;98804.00;2627035;28;20044;-87
2022/07/03 01:34:30;;;;;;;4.18;3.70;;;;;;;11.34;100.00;98804.09;2621068;28;20087;-88
2022/07/03 01:36:06;;;;;;;6.13;4.47;;;;;;;11.34;100.00;98801.47;2626934;28;20158;-88
2022/07/03 01:37:27;;;;;;;4.95;4.07;;;;;;;11.34;100.00;98799.72;2626844;28;20445;-87
2022/07/03 01:38:45;;;;;;;5.28;3.92;;;;;;;11.34;100.00;98798.84;2626955;28;20059;-87
2022/07/03 01:40:03;;;;;;;4.50;4.00;;;;;;;11.34;100.00;98798.84;2626814;28;20048;-88
2022/07/03 01:41:18;;;;;;;5.28;4.03;;;;;;;11.28;100.00;98792.88;2626673;28;20101;-89
2022/07/03 01:42:38;;;;;;;6.63;4.50;;;;;;;11.23;100.00;98786.84;2626801;28;20044;-89
2022/07/03 01:43:57;;;;;;;5.38;4.47;;;;;;;11.24;100.00;98788.59;2626948;28;20044;-88
2022/07/03 01:45:14;;;;;;;6.03;4.53;;;;;;;11.24;100.00;98791.19;2626611;28;20052;-88
2022/07/03 01:46:32;;;;;;;5.93;4.00;;;;;;;11.27;100.00;98792.91;2626731;28;20058;-88
2022/07/03 01:47:48;;;;;;;6.70;4.10;;;;;;;11.27;100.00;98787.66;2626454;28;20064;-87
2022/07/03 01:49:08;;;;;;;5.65;4.15;;;;;;;11.26;100.00;98791.19;2626720;28;20052;-88
2022/07/03 01:50:25;;;;;;;5.00;4.18;;;;;;;11.24;100.00;98785.13;2617568;28;20147;-88
2022/07/03 01:51:42;;;;;;;4.93;3.95;;;;;;;11.25;100.00;98786.84;2622267;28;20512;-88
2022/07/03 01:53:01;;;;;;;5.43;3.95;;;;;;;11.22;100.00;98787.75;2628710;28;20071;-88
2022/07/03 01:54:19;;;;;;;7.20;4.47;;;;;;;11.22;100.00;98790.38;2629029;28;20044;-88
2022/07/03 01:55:37;;;;;;;4.88;4.20;;;;;;;11.22;100.00;98786.91;2628759;28;20073;-88
2022/07/03 01:56:54;;;;;;;9.63;4.25;;;;;;;11.21;100.00;98793.06;2628904;28;20058;-88
2022/07/03 01:58:11;;;;;;;4.93;3.90;;;;;;;11.21;100.00;98779.97;2629083;28;20559;-88
2022/07/03 01:59:27;;;;;;;6.47;4.30;;;;;;;11.19;100.00;98787.00;2628682;28;20074;-88
2022/07/03 02:00:54;;;;;;;5.18;4.00;;;;;;;11.18;100.00;98788.75;2628782;28;20044;-88
2022/07/03 02:02:33;;;;;;;6.60;4.95;;;;;;;11.17;100.00;98787.03;2629129;28;20063;-90
2022/07/03 02:04:07;;;;;;;5.80;3.90;;;;;;;11.16;100.00;98782.69;2628752;28;20081;-88
2022/07/03 02:05:42;;;;;;;5.50;4.20;;;;;;;11.14;100.00;98785.34;2628771;28;20414;-87
2022/07/03 02:07:35;;;;;;;4.82;4.13;;;;;;;11.10;100.00;98783.69;2628571;28;20047;-89
2022/07/03 02:09:04;;;;;;;7.05;3.72;;;;;;;11.06;100.00;98784.69;2617824;28;20048;-89
2022/07/03 02:10:29;;;;;;;4.53;3.42;;;;;;;11.07;100.00;98780.28;2624252;28;20510;-89
2022/07/03 02:11:46;;;;;;;5.88;3.80;;;;;;;11.02;100.00;98786.50;2628632;28;20074;-88
2022/07/03 02:13:09;;;;;;;4.40;3.85;;;;;;;10.99;100.00;98786.59;2628800;28;20659;-88
2022/07/03 02:14:31;;;;;;;4.05;3.60;;;;;;;10.98;100.00;98784.88;2628808;28;20044;-90
2022/07/03 02:15:50;;;;;;;;;;;;;;;10.98;100.00;98787.50;2629447;28;20044;-88
2022/07/03 02:17:21;;;;;;;8.43;4.18;;;;;;;10.98;100.00;98787.50;2628906;28;19935;-88
2022/07/03 02:18:38;;;;;;;4.53;3.80;;;;;;;10.99;100.00;98785.72;2628951;28;20048;-88
2022/07/03 02:19:57;;;;;;;5.32;3.78;;;;;;;10.98;100.00;98789.22;2628773;28;20048;-89
2022/07/03 02:21:19;;;;;;;6.60;4.05;;;;;;;10.98;100.00;98784.00;2621286;28;20048;-88
2022/07/03 02:22:54;;;;;;;4.85;3.67;;;;;;;10.96;100.00;98784.03;2625208;28;20113;-88
2022/07/03 02:24:17;;;;;;;5.97;4.00;;;;;;;10.92;100.00;98779.75;2628664;28;20052;-87
2022/07/03 02:25:39;;;;;;;6.25;4.50;;;;;;;10.91;100.00;98780.66;2628275;28;20036;-90
2022/07/03 02:27:05;;;;;;;5.30;4.22;;;;;;;10.88;100.00;98775.50;2628703;28;20052;-88
2022/07/03 02:28:46;;;;;;;6.35;4.50;;;;;;;10.95;100.00;98777.06;2628461;28;20052;-87
2022/07/03 02:30:06;;;;;;;6.22;4.53;;;;;;;10.91;100.00;98779.81;2628405;28;20100;-88
2022/07/03 02:31:26;;;;;;;5.10;4.38;;;;;;;10.90;100.00;98775.47;2617115;28;20060;-88
2022/07/03 02:32:48;;;;;;;5.28;4.75;;;;;;;10.94;100.00;98774.50;2622447;28;20134;-87
2022/07/03 02:34:06;;;;;;;7.35;5.15;;;;;;;10.96;100.00;98770.06;2628595;28;20071;-88
2022/07/03 02:35:26;;;;;;;6.05;4.60;;;;;;;10.90;100.00;98765.00;2628782;28;20047;-88
2022/07/03 02:36:46;;;;;;;4.95;4.30;;;;;;;10.85;100.00;98765.94;2628511;28;20052;-88
2022/07/03 02:38:01;;;;;;;9.40;5.00;;;;;;;10.81;100.00;98768.66;2628552;28;20044;-89
2022/07/03 02:39:29;;;;;;;8.20;4.78;;;;;;;10.79;100.00;98760.00;2628766;28;20051;-91
2022/07/03 02:41:12;;;;;;;5.28;4.50;;;;;;;10.78;100.00;98767.00;2628145;28;20058;-88
2022/07/03 02:42:30;;;;;;;5.75;4.38;;;;;;;10.77;100.00;98757.44;2628734;28;20043;-89
2022/07/03 02:44:22;;;;;;;6.43;4.32;;;;;;;10.78;100.00;98753.91;2628398;28;20125;-88
2022/07/03 02:45:50;;;;;;;5.88;4.28;;;;;;;10.78;100.00;98755.66;2628275;28;20059;-93
2022/07/03 02:47:30;;;;;;;4.82;4.32;;;;;;;10.78;100.00;98756.53;2628113;28;20060;-88
2022/07/03 02:48:50;;;;;;;4.93;4.32;;;;;;;10.76;100.00;98760.94;2628251;28;20052;-89
2022/07/03 02:50:10;;;;;;;5.88;4.03;;;;;;;10.76;100.00;98754.84;2628114;28;20497;-89
2022/07/03 02:51:35;;;;;;;5.82;4.47;;;;;;;10.78;100.00;98759.16;2628283;28;20094;-88
2022/07/03 02:53:28;;;;;;;5.55;4.70;;;;;;;10.78;100.00;98766.13;2628160;28;20044;-89
2022/07/03 02:54:48;;;;;;;5.43;4.50;;;;;;;10.77;100.00;98757.44;2617264;28;20538;-88
2022/07/03 02:56:13;;;;;;;4.70;4.18;;;;;;;10.77;100.00;98767.03;2621965;28;20115;-89
2022/07/03 02:57:38;;;;;;;5.68;4.40;;;;;;;10.79;100.00;98766.09;2629118;28;20055;-88
2022/07/03 02:59:03;;;;;;;6.43;4.40;;;;;;;10.85;100.00;98765.09;2628442;28;20059;-87
2022/07/03 03:00:18;;;;;;;6.78;4.45;;;;;;;10.83;100.00;98769.53;2627204;28;20055;-88
2022/07/03 03:02:11;;;;;;;7.38;5.10;;;;;;;10.83;100.00;98767.75;2628226;28;20063;-88
2022/07/03 03:03:29;;;;;;;8.27;5.20;;;;;;;10.87;100.00;98769.38;2628127;28;20040;-88
2022/07/03 03:04:53;;;;;;;5.78;4.70;;;;;;;10.88;100.00;98773.72;2628341;28;20052;-88
2022/07/03 03:06:20;;;;;;;7.05;5.03;;;;;;;10.86;100.00;98774.69;2627843;28;20051;-89
2022/07/03 03:07:49;;;;;;;7.07;5.00;;;;;;;10.88;100.00;98771.09;2616942;28;20057;-88
2022/07/03 03:09:11;;;;;;;6.55;4.43;;;;;;;10.83;100.00;98774.75;2624162;28;20052;-88
2022/07/03 03:10:27;;;;;;;6.20;4.97;;;;;;;10.79;100.00;98780.94;2628042;28;20606;-90
2022/07/03 03:11:45;;;;;;;5.55;4.75;;;;;;;10.80;100.00;98778.31;2628004;28;20048;-90
2022/07/03 03:13:09;;;;;;;5.50;4.88;;;;;;;10.90;100.00;98783.34;2628129;28;20048;-88
2022/07/03 03:14:38;;;;;;;4.80;4.18;;;;;;;10.92;100.00;98782.38;2628200;28;20063;-88
2022/07/03 03:16:10;;;;;;;5.22;4.65;;;;;;;10.90;100.00;98784.19;2628110;28;20040;-90
2022/07/03 03:17:28;;;;;;;5.82;4.28;;;;;;;10.86;100.00;98783.38;2628028;28;20097;-87
2022/07/03 03:18:45;;;;;;;5.45;4.30;;;;;;;10.83;100.00;98782.63;2628027;28;20128;-90
2022/07/03 03:20:02;;;;;;;4.88;4.25;;;;;;;10.80;100.00;98780.94;2627888;28;20054;-88
2022/07/03 03:21:19;;;;;;;4.63;4.05;;;;;;;10.77;100.00;98786.25;2628364;28;20040;-88
2022/07/03 03:23:19;;;;;;;5.80;4.90;;;;;;;10.75;100.00;98790.63;2628181;28;20048;-89
2022/07/03 03:24:35;;;;;;;5.40;4.57;;;;;;;10.76;100.00;98781.03;2628188;28;20215;-88
2022/07/03 03:25:52;;;;;;;6.38;4.63;;;;;;;10.77;100.00;98786.25;2627868;28;20490;-90
2022/07/03 03:27:08;;;;;;;6.90;4.60;;;;;;;10.76;100.00;98788.88;2627729;28;20051;-89
2022/07/03 03:28:24;;;;;;;7.28;4.50;;;;;;;10.79;100.00;98779.19;2627963;28;20476;-90
2022/07/03 03:29:40;;;;;;;7.93;4.63;;;;;;;10.81;100.00;98772.16;2627911;28;20082;-88
2022/07/03 03:30:55;;;;;;;5.45;4.68;;;;;;;10.85;100.00;98786.91;2627622;28;20498;-89
2022/07/03 03:32:11;;;;;;;7.72;4.50;;;;;;;10.86;100.00;98774.69;2628263;28;20105;-89
2022/07/03 03:33:27;;;;;;;5.60;4.18;;;;;;;10.88;100.00;98775.50;2628119;28;20048;-89
2022/07/03 03:34:45;;;;;;;5.85;4.53;;;;;;;10.90;100.00;98767.63;2627815;28;20536;-90
2022/07/03 03:36:01;;;;;;;5.32;4.70;;;;;;;10.92;100.00;98771.06;2627949;28;20395;-88
2022/07/03 03:37:17;;;;;;;6.70;4.55;;;;;;;10.95;100.00;98776.22;2616554;28;20382;-89
2022/07/03 03:38:33;;;;;;;5.45;4.53;;;;;;;11.05;100.00;98776.84;2621161;28;20054;-88
2022/07/03 03:39:49;;;;;;;5.57;4.13;;;;;;;11.08;100.00;98775.03;2627650;28;20048;-88
2022/07/03 03:41:05;;;;;;;4.80;4.15;;;;;;;11.10;100.00;98783.69;2627787;28;20040;-88
2022/07/03 03:42:20;;;;;;;5.25;4.43;;;;;;;11.10;100.00;98780.19;2628014;28;20052;-88
2022/07/03 03:43:37;;;;;;;6.63;4.78;;;;;;;11.07;100.00;98780.28;2628035;28;20048;-88
2022/07/03 03:44:52;;;;;;;6.78;5.00;;;;;;;11.08;100.00;98769.78;2627966;28;20044;-90
2022/07/03 03:46:08;;;;;;;7.35;4.80;;;;;;;11.13;100.00;98774.91;2627790;28;20481;-90
2022/07/03 03:47:24;;;;;;;5.45;4.85;;;;;;;11.09;100.00;98768.00;2627974;28;20063;-88
2022/07/03 03:48:41;;;;;;;5.72;4.70;;;;;;;11.07;100.00;98770.69;2627849;28;20043;-89
2022/07/03 03:49:56;;;;;;;6.28;4.57;;;;;;;11.10;100.00;98773.22;2627818;28;20044;-88
2022/07/03 03:51:12;;;;;;;6.03;4.75;;;;;;;11.08;100.00;98772.41;2616488;28;20135;-90
2022/07/03 03:52:32;;;;;;;6.63;4.57;;;;;;;11.09;100.00;98773.25;2621079;28;20048;-89
2022/07/03 03:53:47;;;;;;;4.88;4.32;;;;;;;11.09;100.00;98779.34;2627695;28;20079;-89
2022/07/03 03:55:03;;;;;;;4.95;4.45;;;;;;;11.14;100.00;98774.84;2627932;28;20040;-88
2022/07/03 03:56:19;;;;;;;6.05;5.07;;;;;;;11.30;100.00;98774.47;2627596;28;20376;-90
2022/07/03 03:57:36;;;;;;;6.15;4.50;;;;;;;11.42;100.00;98774.16;2616396;28;20053;-90
2022/07/03 03:58:51;;;;;;;7.55;5.18;;;;;;;11.53;100.00;98773.88;2620716;28;20125;-87
2022/07/03 04:00:07;;;;;;;7.53;5.22;;;;;;;11.62;100.00;98778.03;2627516;28;20040;-88
2022/07/03 04:01:23;;;;;;;5.78;5.00;;;;;;;11.61;100.00;98776.31;2616487;28;20087;-91
2022/07/03 04:02:39;;;;;;;12.82;4.90;;;;;;;11.67;100.00;98781.38;2610205;28;20099;-89
2022/07/03 04:03:54;;;;;;;6.45;4.35;;;;;;;11.71;100.00;98779.53;2620920;28;20123;-88
2022/07/03 04:05:10;;;;;;;8.50;4.60;;;;;;;11.69;100.00;98779.56;2627346;28;20048;-89
2022/07/03 04:06:26;;;;;;;11.10;4.88;;;;;;;11.54;100.00;98780.84;2627491;28;20056;-90
2022/07/03 04:07:41;;;;;;;5.00;4.20;;;;;;;11.52;100.00;98777.38;2627433;28;20079;-88
2022/07/03 04:08:57;;;;;;;6.40;4.78;;;;;;;11.49;100.00;98776.63;2627515;28;20059;-88
2022/07/03 04:10:12;;;;;;;8.07;4.80;;;;;;;11.35;100.00;98780.47;2627465;28;20040;-88
2022/07/03 04:11:28;;;;;;;6.55;4.55;;;;;;;11.46;100.00;98782.81;2627155;28;20059;-88
2022/07/03 04:12:43;;;;;;;7.22;4.78;;;;;;;11.51;100.00;98783.53;2615939;28;20480;-88
2022/07/03 04:13:59;;;;;;;8.10;5.45;;;;;;;11.52;100.00;98784.41;2620659;28;20987;-87
2022/07/03 04:15:14;;;;;;;5.70;4.95;;;;;;;11.48;100.00;98791.47;2627515;28;20295;-88
2022/07/03 04:16:30;;;;;;;5.35;4.53;;;;;;;11.37;100.00;98783.91;2627542;28;20043;-90
2022/07/03 04:17:50;;;;;;;9.77;5.60;;;;;;;11.27;100.00;98779.78;2627335;28;20052;-87
2022/07/03 04:19:06;;;;;;;7.43;5.10;;;;;;;11.35;100.00;98790.06;2627561;28;20055;-88
2022/07/03 04:20:22;;;;;;;6.78;5.03;;;;;;;11.37;100.00;98783.91;2627468;28;20122;-87
2022/07/03 04:21:37;;;;;;;7.38;5.68;;;;;;;11.38;100.00;98785.63;2627358;28;20048;-89
2022/07/03 04:22:53;;;;;;;7.72;5.90;;;;;;;11.39;100.00;98787.34;2627506;28;20049;-88
2022/07/03 04:24:09;;;;;;;7.78;5.40;;;;;;;11.39;100.00;98784.72;2627487;28;20043;-88
2022/07/03 04:25:24;;;;;;;9.70;5.55;;;;;;;11.42;100.00;98787.25;2627401;28;20043;-86
2022/07/03 04:26:40;;;;;;;8.13;6.18;;;;;;;11.41;100.00;98789.94;2627316;28;20075;-87
2022/07/03 04:27:56;;;;;;;6.30;5.10;;;;;;;11.41;100.00;98787.31;2627565;28;20056;-87
2022/07/03 04:29:11;;;;;;;8.98;5.15;;;;;;;11.44;100.00;98785.44;2627438;28;20194;-87
2022/07/03 04:30:27;;;;;;;5.97;5.18;;;;;;;11.47;100.00;98797.63;2627296;28;20043;-87
2022/07/03 04:31:43;;;;;;;5.70;5.10;;;;;;;11.44;100.00;98790.69;2627518;28;20052;-88
2022/07/03 04:32:58;;;;;;;7.72;6.00;;;;;;;11.43;100.00;98778.50;2627374;28;20044;-87
2022/07/03 04:34:14;;;;;;;9.25;5.43;;;;;;;11.43;100.00;98791.59;2627512;28;20067;-87
2022/07/03 04:35:29;;;;;;;10.95;5.50;;;;;;;11.50;100.00;98784.44;2616199;28;20813;-87
2022/07/03 04:36:45;;;;;;;6.88;5.55;;;;;;;11.58;100.00;98781.59;2620511;28;20525;-88
2022/07/03 04:38:01;;;;;;;7.80;5.55;;;;;;;11.63;100.00;98779.75;2627350;28;20058;-86
2022/07/03 04:39:16;;;;;;;7.35;6.13;;;;;;;11.65;100.00;98782.31;2627228;28;20453;-87
2022/07/03 04:40:32;;;;;;;9.25;6.07;;;;;;;11.70;100.00;98783.91;2627043;28;20052;-86
2022/07/03 04:41:48;;;;;;;10.38;6.25;;;;;;;11.77;100.00;98786.38;2627460;28;20801;-86
2022/07/03 04:43:03;;;;;;;7.00;6.22;;;;;;;11.80;100.00;98784.50;2627184;28;20054;-86
2022/07/03 04:44:19;;;;;;;7.13;5.90;;;;;;;11.88;100.00;98786.94;2627198;28;20537;-85
2022/07/03 04:45:34;;;;;;;6.97;5.47;;;;;;;11.89;100.00;98793.03;2627111;28;20044;-86
2022/07/03 04:46:50;;;;;;;7.22;5.70;;;;;;;11.90;100.00;98787.75;2626985;28;20067;-86
2022/07/03 04:48:06;;;;;;;6.68;5.57;;;;;;;11.94;100.00;98789.38;2626915;28;20433;-89
2022/07/03 04:49:21;;;;;;;6.80;5.75;;;;;;;11.99;100.00;98790.09;2627255;28;20056;-85
2022/07/03 04:50:37;;;;;;;9.25;6.13;;;;;;;12.03;100.00;98784.81;2626980;28;20086;-87
2022/07/03 04:51:53;;;;;;;6.72;5.78;;;;;;;12.05;100.00;98788.25;2627248;28;20048;-86
2022/07/03 04:53:08;;;;;;;9.20;6.30;;;;;;;12.11;100.00;98785.44;2627492;28;20044;-85
2022/07/03 04:54:24;;;;;;;8.75;5.90;;;;;;;12.15;100.00;98784.44;2627444;28;20097;-85
2022/07/03 04:55:39;;;;;;;7.97;5.70;;;;;;;12.18;100.00;98787.00;2627183;28;20132;-86
2022/07/03 04:56:55;;;;;;;7.35;5.82;;;;;;;12.19;100.00;98786.09;2627067;28;20324;-86
2022/07/03 04:58:11;;;;;;;7.03;5.88;;;;;;;12.23;100.00;98785.09;2627350;28;20398;-86
2022/07/03 04:59:26;;;;;;;6.95;5.95;;;;;;;12.38;100.00;98780.28;2627081;28;20131;-85
2022/07/03 05:00:43;;;;;;;8.90;5.90;;;;;;;12.47;100.00;98773.91;2626811;28;20215;-85
2022/07/03 05:01:59;;;;;;;8.02;5.90;;;;;;;12.48;100.00;98779.13;2627073;28;20509;-85
2022/07/03 05:03:15;;;;;;;8.15;5.70;;;;;;;12.50;100.00;98777.31;2615859;28;20439;-88
2022/07/03 05:04:30;;;;;;;8.18;6.00;;;;;;;12.53;100.00;98777.19;2620218;28;20051;-88
2022/07/03 05:05:46;;;;;;;8.00;5.63;;;;;;;12.59;100.00;98784.03;2627065;28;20055;-84
2022/07/03 05:07:02;;;;;;;6.70;5.22;;;;;;;12.64;100.00;98786.53;2626927;28;20063;-88
2022/07/03 05:08:19;;;;;;;11.60;6.93;;;;;;;12.74;100.00;98781.84;2627145;28;20048;-84
2022/07/03 05:09:35;;;;;;;7.35;5.43;;;;;;;12.92;100.00;98783.03;2627030;28;20072;-84
2022/07/03 05:10:50;;;;;;;7.05;5.95;;;;;;;12.92;100.00;98791.78;2626934;28;20070;-83
2022/07/03 05:12:06;;;;;;;7.38;6.18;;;;;;;12.99;100.00;98787.16;2626833;28;20044;-86
2022/07/03 05:13:22;;;;;;;8.02;5.80;;;;;;;13.02;100.00;98784.47;2627069;28;20048;-84
2022/07/03 05:14:37;;;;;;;7.35;5.45;;;;;;;13.14;100.00;98785.81;2627275;28;20410;-84
2022/07/03 05:15:53;;;;;;;7.55;5.38;;;;;;;13.17;100.00;98787.50;2627288;28;20044;-84
2022/07/03 05:17:09;;;;;;;8.75;6.18;;;;;;;13.19;100.00;98781.25;2627086;28;20040;-84
2022/07/03 05:18:25;;;;;;;8.80;5.95;;;;;;;13.18;100.00;98784.78;2627034;28;20058;-84
2022/07/03 05:19:40;;;;;;;6.80;5.47;;;;;;;13.24;100.00;98792.50;2626912;28;20406;-84
2022/07/03 05:20:56;;;;;;;8.73;5.70;;;;;;;13.29;100.00;98779.19;2626846;28;20452;-85
2022/07/03 05:22:12;;;;;;;6.63;5.63;;;;;;;13.33;100.00;98793.94;2627118;28;20555;-87
2022/07/03 05:23:27;;;;;;;7.47;5.60;;;;;;;13.35;100.00;98789.50;2626543;28;20571;-85
2022/07/03 05:24:43;;;;;;;7.85;5.18;;;;;;;13.40;100.00;98790.19;2627008;28;20047;-86
2022/07/03 05:25:59;;;;;;;6.53;5.57;;;;;;;13.38;100.00;98789.38;2626762;28;20048;-85
2022/07/03 05:27:15;;;;;;;7.10;5.55;;;;;;;13.40;100.00;98789.34;2626751;28;20051;-88
2022/07/03 05:28:30;;;;;;;7.38;5.65;;;;;;;13.51;100.00;98787.25;2626970;28;20052;-84
2022/07/03 05:29:46;;;;;;;7.15;5.32;;;;;;;13.51;100.00;98786.38;2626878;28;20062;-84
2022/07/03 05:31:01;;;;;;;7.25;5.63;;;;;;;13.53;100.00;98790.69;2626940;28;20052;-84
2022/07/03 05:32:17;;;;;;;10.48;5.78;;;;;;;13.57;100.00;98788.81;2626407;28;20044;-90
2022/07/03 05:33:33;;;;;;;8.50;5.55;;;;;;;13.64;100.00;98787.66;2627070;28;20106;-85
2022/07/03 05:34:48;;;;;;;6.18;5.35;;;;;;;13.67;100.00;98784.06;2627047;28;20043;-84
2022/07/03 05:36:04;;;;;;;8.13;5.88;;;;;;;13.68;100.00;98785.78;2626697;28;20775;-85
2022/07/03 05:37:20;;;;;;;7.07;5.70;;;;;;;13.75;100.00;98783.81;2626977;28;20055;-85
2022/07/03 05:40:12;;;;;;;6.70;5.47;;;;;;;13.88;100.00;98781.59;2573742;28;20065;-84
2022/07/03 05:41:27;;;;;;;7.28;5.32;;;;;;;13.96;100.00;98777.75;2626797;28;20059;-85
2022/07/03 05:42:43;;;;;;;6.40;5.38;;;;;;;14.02;100.00;98781.09;2626899;28;20056;-84
2022/07/03 05:43:59;;;;;;;5.93;5.15;;;;;;;14.10;100.00;98790.41;2627004;28;20054;-84
2022/07/03 05:45:14;;;;;;;6.15;5.55;;;;;;;14.22;100.00;98780.34;2626802;28;20044;-84
2022/07/03 05:46:30;;;;;;;9.93;6.00;;;;;;;14.26;100.00;98782.81;2626784;28;20082;-83
2022/07/03 05:47:46;;;;;;;7.53;5.93;;;;;;;14.32;100.00;98773.84;2626432;28;20499;-83
2022/07/03 05:49:01;;;;;;;6.53;5.30;;;;;;;14.43;100.00;98781.31;2626879;28;20529;-84
2022/07/03 05:50:17;;;;;;;7.78;5.68;;;;;;;14.53;100.00;98777.41;2626514;28;20048;-84
2022/07/03 05:51:32;;;;;;;6.60;5.60;;;;;;;14.57;100.00;98778.13;2626525;28;20083;-89
2022/07/03 05:52:48;;;;;;;7.63;5.88;;;;;;;14.60;100.00;98771.91;2626005;28;20406;-84
2022/07/03 05:54:04;;;;;;;8.48;5.70;;;;;;;14.68;100.00;98775.09;2615123;28;20139;-84
2022/07/03 05:55:19;;;;;;;7.97;4.90;;;;;;;14.70;100.00;98770.63;2619654;28;20411;-84
2022/07/03 05:56:35;;;;;;;6.82;5.35;;;;;;;14.77;100.00;98777.38;2626212;28;20071;-83
2022/07/03 05:57:51;;;;;;;7.57;5.18;;;;;;;14.85;100.00;98779.72;2626473;28;20040;-84
2022/07/03 05:59:06;;;;;;;6.30;5.13;;;;;;;14.92;100.00;98790.88;2626051;28;20051;-87
2022/07/03 06:00:22;;;;;;;6.82;4.78;;;;;;;15.01;100.00;98787.88;2626112;28;20525;-87
2022/07/03 06:01:37;;;;;;;8.10;5.47;;;;;;;15.04;100.00;98785.09;2626160;28;20081;-85
2022/07/03 06:02:53;;;;;;;6.10;5.13;;;;;;;15.09;100.00;98785.78;2626614;28;20048;-87
2022/07/03 06:04:09;;;;;;;7.47;5.30;;;;;;;15.17;100.00;98782.84;2627280;28;20410;-87
2022/07/03 06:05:24;;;;;;;6.35;5.20;;;;;;;15.27;100.00;98780.66;2626573;28;20158;-85
2022/07/03 06:06:40;;;;;;;5.70;4.93;;;;;;;15.36;100.00;98779.41;2623489;28;20051;-84
2022/07/03 06:07:55;;;;;;;6.18;5.05;;;;;;;15.47;100.00;98778.94;2625520;28;20080;-84
2022/07/03 06:09:11;;;;;;;5.95;5.35;;;;;;;15.58;100.00;98778.50;2626637;28;20040;-84
2022/07/03 06:10:28;;;;;;;7.03;5.00;;;;;;;15.68;100.00;98778.03;2626133;28;20851;-84
2022/07/03 06:11:44;;;;;;;6.57;4.95;;;;;;;15.86;100.00;98775.50;2626525;28;20071;-85